sensor_id;sensor_type;location;lat;lon;timestamp;temperature;humidity
59041;DHT22;44825;53.200;6.448;2022-10-16T00:01:20;13.20;99.90
59041;DHT22;44825;53.200;6.448;2022-10-16T00:03:48;13.20;99.90
59041;DHT22;44825;53.200;6.448;2022-10-16T00:06:16;13.20;99.90
59041;DHT22;44825;53.200;6.448;2022-10-16T00:08:45;13.10;99.90
59041;DHT22;44825;53.200;6.448;2022-10-16T00:11:13;13.20;99.90
59041;DHT22;44825;53.200;6.448;2022-10-16T00:13:42;13.20;99.90
59041;DHT22;44825;53.200;6.448;2022-10-16T00:16:13;13.20;99.90
59041;DHT22;44825;53.200;6.448;2022-10-16T00:18:42;13.20;99.90
59041;DHT22;44825;53.200;6.448;2022-10-16T00:21:10;13.20;99.90
59041;DHT22;44825;53.200;6.448;2022-10-16T00:23:38;13.20;99.90
59041;DHT22;44825;53.200;6.448;2022-10-16T00:26:06;13.20;99.90
59041;DHT22;44825;53.200;6.448;2022-10-16T00:28:34;13.20;99.90
59041;DHT22;44825;53.200;6.448;2022-10-16T00:31:04;13.20;99.90
59041;DHT22;44825;53.200;6.448;2022-10-16T00:33:33;13.20;99.90
59041;DHT22;44825;53.200;6.448;2022-10-16T00:36:00;13.20;99.90
59041;DHT22;44825;53.200;6.448;2022-10-16T00:38:28;13.20;99.90
59041;DHT22;44825;53.200;6.448;2022-10-16T00:40:55;13.20;99.90
59041;DHT22;44825;53.200;6.448;2022-10-16T00:43:41;13.20;99.90
59041;DHT22;44825;53.200;6.448;2022-10-16T00:46:17;13.20;99.90
59041;DHT22;44825;53.200;6.448;2022-10-16T00:48:46;13.20;99.90
59041;DHT22;44825;53.200;6.448;2022-10-16T00:51:15;13.20;99.90
59041;DHT22;44825;53.200;6.448;2022-10-16T00:53:43;13.20;99.90
59041;DHT22;44825;53.200;6.448;2022-10-16T00:56:15;13.20;99.90
59041;DHT22;44825;53.200;6.448;2022-10-16T00:58:42;13.20;99.90
59041;DHT22;44825;53.200;6.448;2022-10-16T01:01:11;13.20;99.90
59041;DHT22;44825;53.200;6.448;2022-10-16T01:03:40;13.20;99.90
59041;DHT22;44825;53.200;6.448;2022-10-16T01:09:02;13.20;99.90
59041;DHT22;44825;53.200;6.448;2022-10-16T01:11:32;13.20;99.90
59041;DHT22;44825;53.200;6.448;2022-10-16T01:14:02;13.20;99.90
59041;DHT22;44825;53.200;6.448;2022-10-16T01:16:34;13.20;99.90
59041;DHT22;44825;53.200;6.448;2022-10-16T01:19:04;13.20;99.90
59041;DHT22;44825;53.200;6.448;2022-10-16T01:21:36;13.20;99.90
59041;DHT22;44825;53.200;6.448;2022-10-16T01:24:11;13.20;99.90
59041;DHT22;44825;53.200;6.448;2022-10-16T01:26:50;13.20;99.90
59041;DHT22;44825;53.200;6.448;2022-10-16T01:29:28;13.20;99.90
59041;DHT22;44825;53.200;6.448;2022-10-16T01:31:59;13.20;99.90
59041;DHT22;44825;53.200;6.448;2022-10-16T01:34:28;13.20;99.90
59041;DHT22;44825;53.200;6.448;2022-10-16T01:37:00;13.20;99.90
59041;DHT22;44825;53.200;6.448;2022-10-16T01:39:29;13.20;99.90
59041;DHT22;44825;53.200;6.448;2022-10-16T01:41:59;13.20;99.90
59041;DHT22;44825;53.200;6.448;2022-10-16T01:44:29;13.20;99.90
59041;DHT22;44825;53.200;6.448;2022-10-16T01:46:57;13.20;99.90
59041;DHT22;44825;53.200;6.448;2022-10-16T01:49:25;13.20;99.90
59041;DHT22;44825;53.200;6.448;2022-10-16T01:51:55;13.20;99.90
59041;DHT22;44825;53.200;6.448;2022-10-16T01:54:22;13.30;99.90
59041;DHT22;44825;53.200;6.448;2022-10-16T01:56:50;13.30;99.90
59041;DHT22;44825;53.200;6.448;2022-10-16T01:59:18;13.30;99.90
59041;DHT22;44825;53.200;6.448;2022-10-16T02:01:48;13.30;99.90
59041;DHT22;44825;53.200;6.448;2022-10-16T02:04:19;13.30;99.90
59041;DHT22;44825;53.200;6.448;2022-10-16T02:06:47;13.30;99.90
59041;DHT22;44825;53.200;6.448;2022-10-16T02:09:15;13.30;99.90
59041;DHT22;44825;53.200;6.448;2022-10-16T02:11:42;13.40;99.90
59041;DHT22;44825;53.200;6.448;2022-10-16T02:14:09;13.30;99.90
59041;DHT22;44825;53.200;6.448;2022-10-16T02:16:42;13.30;99.90
59041;DHT22;44825;53.200;6.448;2022-10-16T02:19:11;13.40;99.90
59041;DHT22;44825;53.200;6.448;2022-10-16T02:21:39;13.30;99.90
59041;DHT22;44825;53.200;6.448;2022-10-16T02:24:08;13.40;99.90
59041;DHT22;44825;53.200;6.448;2022-10-16T02:26:46;13.40;99.90
59041;DHT22;44825;53.200;6.448;2022-10-16T02:29:16;13.30;99.90
59041;DHT22;44825;53.200;6.448;2022-10-16T02:31:45;13.40;99.90
59041;DHT22;44825;53.200;6.448;2022-10-16T02:34:16;13.40;99.90
59041;DHT22;44825;53.200;6.448;2022-10-16T02:36:45;13.40;99.90
59041;DHT22;44825;53.200;6.448;2022-10-16T02:39:14;13.40;99.90
59041;DHT22;44825;53.200;6.448;2022-10-16T02:41:41;13.40;99.90
59041;DHT22;44825;53.200;6.448;2022-10-16T02:44:14;13.40;99.90
59041;DHT22;44825;53.200;6.448;2022-10-16T02:46:42;13.40;99.90
59041;DHT22;44825;53.200;6.448;2022-10-16T02:49:09;13.40;99.90
59041;DHT22;44825;53.200;6.448;2022-10-16T02:51:37;13.40;99.90
59041;DHT22;44825;53.200;6.448;2022-10-16T02:54:05;13.40;99.90
59041;DHT22;44825;53.200;6.448;2022-10-16T02:56:32;13.40;99.90
59041;DHT22;44825;53.200;6.448;2022-10-16T02:58:59;13.30;99.90
59041;DHT22;44825;53.200;6.448;2022-10-16T03:01:26;13.40;99.90
59041;DHT22;44825;53.200;6.448;2022-10-16T03:03:53;13.30;99.90
59041;DHT22;44825;53.200;6.448;2022-10-16T03:06:20;13.40;99.90
59041;DHT22;44825;53.200;6.448;2022-10-16T03:08:48;13.30;99.90
59041;DHT22;44825;53.200;6.448;2022-10-16T03:11:15;13.30;99.90
59041;DHT22;44825;53.200;6.448;2022-10-16T03:13:43;13.40;99.90
59041;DHT22;44825;53.200;6.448;2022-10-16T03:16:10;13.30;99.90
59041;DHT22;44825;53.200;6.448;2022-10-16T03:18:40;13.30;99.90
59041;DHT22;44825;53.200;6.448;2022-10-16T03:21:07;13.30;99.90
59041;DHT22;44825;53.200;6.448;2022-10-16T03:23:34;13.30;99.90
59041;DHT22;44825;53.200;6.448;2022-10-16T03:26:02;13.30;99.90
59041;DHT22;44825;53.200;6.448;2022-10-16T03:28:29;13.30;99.90
59041;DHT22;44825;53.200;6.448;2022-10-16T03:30:57;13.30;99.90
59041;DHT22;44825;53.200;6.448;2022-10-16T03:33:24;13.40;99.90
59041;DHT22;44825;53.200;6.448;2022-10-16T03:35:51;13.30;99.90
59041;DHT22;44825;53.200;6.448;2022-10-16T03:38:19;13.40;99.90
59041;DHT22;44825;53.200;6.448;2022-10-16T03:40:46;13.30;99.90
59041;DHT22;44825;53.200;6.448;2022-10-16T03:43:14;13.40;99.90
59041;DHT22;44825;53.200;6.448;2022-10-16T03:45:41;13.30;99.90
59041;DHT22;44825;53.200;6.448;2022-10-16T03:48:08;13.30;99.90
59041;DHT22;44825;53.200;6.448;2022-10-16T03:50:36;13.30;99.90
59041;DHT22;44825;53.200;6.448;2022-10-16T03:53:05;13.30;99.90
59041;DHT22;44825;53.200;6.448;2022-10-16T03:55:33;13.40;99.90
59041;DHT22;44825;53.200;6.448;2022-10-16T03:58:00;13.40;99.90
59041;DHT22;44825;53.200;6.448;2022-10-16T04:00:28;13.40;99.90
59041;DHT22;44825;53.200;6.448;2022-10-16T04:02:55;13.30;99.90
59041;DHT22;44825;53.200;6.448;2022-10-16T04:05:24;13.30;99.90
59041;DHT22;44825;53.200;6.448;2022-10-16T04:07:51;13.30;99.90
59041;DHT22;44825;53.200;6.448;2022-10-16T04:10:18;13.30;99.90
59041;DHT22;44825;53.200;6.448;2022-10-16T04:12:45;13.30;99.90
59041;DHT22;44825;53.200;6.448;2022-10-16T04:15:12;13.30;99.90
59041;DHT22;44825;53.200;6.448;2022-10-16T04:17:40;13.20;99.90
59041;DHT22;44825;53.200;6.448;2022-10-16T04:20:07;13.20;99.90
59041;DHT22;44825;53.200;6.448;2022-10-16T04:22:35;13.20;99.90
59041;DHT22;44825;53.200;6.448;2022-10-16T04:25:02;13.20;99.90
59041;DHT22;44825;53.200;6.448;2022-10-16T04:27:29;13.20;99.90
59041;DHT22;44825;53.200;6.448;2022-10-16T04:29:57;13.20;99.90
59041;DHT22;44825;53.200;6.448;2022-10-16T04:32:24;13.20;99.90
59041;DHT22;44825;53.200;6.448;2022-10-16T04:34:52;13.10;99.90
59041;DHT22;44825;53.200;6.448;2022-10-16T04:37:22;13.10;99.90
59041;DHT22;44825;53.200;6.448;2022-10-16T04:39:50;13.20;99.90
59041;DHT22;44825;53.200;6.448;2022-10-16T04:42:17;13.10;99.90
59041;DHT22;44825;53.200;6.448;2022-10-16T04:44:44;13.10;99.90
59041;DHT22;44825;53.200;6.448;2022-10-16T04:47:11;13.20;99.90
59041;DHT22;44825;53.200;6.448;2022-10-16T04:49:38;13.20;99.90
59041;DHT22;44825;53.200;6.448;2022-10-16T04:52:07;13.20;99.90
59041;DHT22;44825;53.200;6.448;2022-10-16T04:54:35;13.20;99.90
59041;DHT22;44825;53.200;6.448;2022-10-16T04:57:02;13.20;99.90
59041;DHT22;44825;53.200;6.448;2022-10-16T04:59:30;13.30;99.90
59041;DHT22;44825;53.200;6.448;2022-10-16T05:01:57;13.30;99.90
59041;DHT22;44825;53.200;6.448;2022-10-16T05:04:24;13.30;99.90
59041;DHT22;44825;53.200;6.448;2022-10-16T05:06:51;13.30;99.90
59041;DHT22;44825;53.200;6.448;2022-10-16T05:09:20;13.30;99.90
59041;DHT22;44825;53.200;6.448;2022-10-16T05:11:47;13.30;99.90
59041;DHT22;44825;53.200;6.448;2022-10-16T05:14:15;13.30;99.90
59041;DHT22;44825;53.200;6.448;2022-10-16T05:16:42;13.30;99.90
59041;DHT22;44825;53.200;6.448;2022-10-16T05:19:09;13.30;99.90
59041;DHT22;44825;53.200;6.448;2022-10-16T05:21:36;13.30;99.90
59041;DHT22;44825;53.200;6.448;2022-10-16T05:24:03;13.30;99.90
59041;DHT22;44825;53.200;6.448;2022-10-16T05:26:32;13.30;99.90
59041;DHT22;44825;53.200;6.448;2022-10-16T05:28:59;13.30;99.90
59041;DHT22;44825;53.200;6.448;2022-10-16T05:31:26;13.30;99.90
59041;DHT22;44825;53.200;6.448;2022-10-16T05:33:57;13.30;99.90
59041;DHT22;44825;53.200;6.448;2022-10-16T05:36:24;13.30;99.90
59041;DHT22;44825;53.200;6.448;2022-10-16T05:38:51;13.30;99.90
59041;DHT22;44825;53.200;6.448;2022-10-16T05:41:19;13.30;99.90
59041;DHT22;44825;53.200;6.448;2022-10-16T05:43:48;13.30;99.90
59041;DHT22;44825;53.200;6.448;2022-10-16T05:46:17;13.40;99.90
59041;DHT22;44825;53.200;6.448;2022-10-16T05:48:44;13.30;99.90
59041;DHT22;44825;53.200;6.448;2022-10-16T05:51:11;13.30;99.90
59041;DHT22;44825;53.200;6.448;2022-10-16T05:53:39;13.30;99.90
59041;DHT22;44825;53.200;6.448;2022-10-16T05:56:07;13.30;99.90
59041;DHT22;44825;53.200;6.448;2022-10-16T05:58:36;13.40;99.90
59041;DHT22;44825;53.200;6.448;2022-10-16T06:01:09;13.40;99.90
59041;DHT22;44825;53.200;6.448;2022-10-16T06:03:37;13.40;99.90
59041;DHT22;44825;53.200;6.448;2022-10-16T06:06:07;13.40;99.90
59041;DHT22;44825;53.200;6.448;2022-10-16T06:08:35;13.30;99.90
59041;DHT22;44825;53.200;6.448;2022-10-16T06:11:02;13.40;99.90
59041;DHT22;44825;53.200;6.448;2022-10-16T06:13:29;13.30;99.90
59041;DHT22;44825;53.200;6.448;2022-10-16T06:15:57;13.30;99.90
59041;DHT22;44825;53.200;6.448;2022-10-16T06:18:26;13.30;99.90
59041;DHT22;44825;53.200;6.448;2022-10-16T06:20:53;13.30;99.90
59041;DHT22;44825;53.200;6.448;2022-10-16T06:23:20;13.30;99.90
59041;DHT22;44825;53.200;6.448;2022-10-16T06:25:47;13.30;99.90
59041;DHT22;44825;53.200;6.448;2022-10-16T06:28:16;13.30;99.90
59041;DHT22;44825;53.200;6.448;2022-10-16T06:30:43;13.30;99.90
59041;DHT22;44825;53.200;6.448;2022-10-16T06:33:11;13.40;99.90
59041;DHT22;44825;53.200;6.448;2022-10-16T06:35:41;13.40;99.90
59041;DHT22;44825;53.200;6.448;2022-10-16T06:38:08;13.40;99.90
59041;DHT22;44825;53.200;6.448;2022-10-16T06:40:37;13.40;99.90
59041;DHT22;44825;53.200;6.448;2022-10-16T06:43:04;13.40;99.90
59041;DHT22;44825;53.200;6.448;2022-10-16T06:45:31;13.40;99.90
59041;DHT22;44825;53.200;6.448;2022-10-16T06:47:58;13.40;99.90
59041;DHT22;44825;53.200;6.448;2022-10-16T06:50:25;13.40;99.90
59041;DHT22;44825;53.200;6.448;2022-10-16T06:52:53;13.50;99.90
59041;DHT22;44825;53.200;6.448;2022-10-16T06:55:20;13.50;99.90
59041;DHT22;44825;53.200;6.448;2022-10-16T06:57:48;13.50;99.90
59041;DHT22;44825;53.200;6.448;2022-10-16T07:00:17;13.50;99.90
59041;DHT22;44825;53.200;6.448;2022-10-16T07:02:44;13.60;99.90
59041;DHT22;44825;53.200;6.448;2022-10-16T07:05:11;13.50;99.90
59041;DHT22;44825;53.200;6.448;2022-10-16T07:07:38;13.50;99.90
59041;DHT22;44825;53.200;6.448;2022-10-16T07:10:07;13.50;99.90
59041;DHT22;44825;53.200;6.448;2022-10-16T07:12:34;13.50;99.90
59041;DHT22;44825;53.200;6.448;2022-10-16T07:15:01;13.50;99.90
59041;DHT22;44825;53.200;6.448;2022-10-16T07:17:28;13.50;99.90
59041;DHT22;44825;53.200;6.448;2022-10-16T07:19:56;13.50;99.90
59041;DHT22;44825;53.200;6.448;2022-10-16T07:22:24;13.50;99.90
59041;DHT22;44825;53.200;6.448;2022-10-16T07:25:06;13.50;99.90
59041;DHT22;44825;53.200;6.448;2022-10-16T07:27:51;13.60;99.90
59041;DHT22;44825;53.200;6.448;2022-10-16T07:30:18;13.60;99.90
59041;DHT22;44825;53.200;6.448;2022-10-16T07:32:45;13.50;99.90
59041;DHT22;44825;53.200;6.448;2022-10-16T07:35:13;13.50;99.90
59041;DHT22;44825;53.200;6.448;2022-10-16T07:37:43;13.50;99.90
59041;DHT22;44825;53.200;6.448;2022-10-16T07:40:10;13.50;99.90
59041;DHT22;44825;53.200;6.448;2022-10-16T07:42:41;13.50;99.90
59041;DHT22;44825;53.200;6.448;2022-10-16T07:45:10;13.50;99.90
59041;DHT22;44825;53.200;6.448;2022-10-16T07:47:37;13.50;99.90
59041;DHT22;44825;53.200;6.448;2022-10-16T07:50:04;13.50;99.90
59041;DHT22;44825;53.200;6.448;2022-10-16T07:52:31;13.50;99.90
59041;DHT22;44825;53.200;6.448;2022-10-16T07:54:59;13.50;99.90
59041;DHT22;44825;53.200;6.448;2022-10-16T07:57:27;13.50;99.90
59041;DHT22;44825;53.200;6.448;2022-10-16T07:59:54;13.50;99.90
59041;DHT22;44825;53.200;6.448;2022-10-16T08:02:25;13.50;99.90
59041;DHT22;44825;53.200;6.448;2022-10-16T08:04:55;13.50;99.90
59041;DHT22;44825;53.200;6.448;2022-10-16T08:07:22;13.50;99.90
59041;DHT22;44825;53.200;6.448;2022-10-16T08:09:49;13.50;99.90
59041;DHT22;44825;53.200;6.448;2022-10-16T08:12:17;13.50;99.90
59041;DHT22;44825;53.200;6.448;2022-10-16T08:14:44;13.60;99.90
59041;DHT22;44825;53.200;6.448;2022-10-16T08:17:13;13.60;99.90
59041;DHT22;44825;53.200;6.448;2022-10-16T08:19:44;13.70;99.90
59041;DHT22;44825;53.200;6.448;2022-10-16T08:22:14;13.70;99.90
59041;DHT22;44825;53.200;6.448;2022-10-16T08:24:43;13.80;99.90
59041;DHT22;44825;53.200;6.448;2022-10-16T08:27:10;13.90;99.90
59041;DHT22;44825;53.200;6.448;2022-10-16T08:29:37;14.00;99.90
59041;DHT22;44825;53.200;6.448;2022-10-16T08:32:05;14.10;99.90
59041;DHT22;44825;53.200;6.448;2022-10-16T08:34:33;14.20;99.90
59041;DHT22;44825;53.200;6.448;2022-10-16T08:37:01;14.20;99.90
59041;DHT22;44825;53.200;6.448;2022-10-16T08:39:28;14.30;99.90
59041;DHT22;44825;53.200;6.448;2022-10-16T08:47:33;14.40;99.90
59041;DHT22;44825;53.200;6.448;2022-10-16T08:50:08;14.40;99.90
59041;DHT22;44825;53.200;6.448;2022-10-16T08:56:35;14.50;99.90
59041;DHT22;44825;53.200;6.448;2022-10-16T09:02:01;14.60;99.90
59041;DHT22;44825;53.200;6.448;2022-10-16T09:10:13;14.70;99.90
59041;DHT22;44825;53.200;6.448;2022-10-16T09:21:59;14.90;99.90
59041;DHT22;44825;53.200;6.448;2022-10-16T09:24:33;14.90;99.90
59041;DHT22;44825;53.200;6.448;2022-10-16T09:30:32;15.00;99.90
59041;DHT22;44825;53.200;6.448;2022-10-16T09:33:16;15.10;99.90
59041;DHT22;44825;53.200;6.448;2022-10-16T09:36:06;15.20;99.90
59041;DHT22;44825;53.200;6.448;2022-10-16T09:38:39;15.20;99.90
59041;DHT22;44825;53.200;6.448;2022-10-16T14:11:01;15.90;99.90
59041;DHT22;44825;53.200;6.448;2022-10-16T14:13:43;15.90;99.90
59041;DHT22;44825;53.200;6.448;2022-10-16T14:22:30;15.90;99.90
59041;DHT22;44825;53.200;6.448;2022-10-16T14:25:01;15.90;99.90
59041;DHT22;44825;53.200;6.448;2022-10-16T14:27:32;15.90;99.90
59041;DHT22;44825;53.200;6.448;2022-10-16T14:30:08;15.90;99.90
59041;DHT22;44825;53.200;6.448;2022-10-16T14:32:40;15.80;99.90
59041;DHT22;44825;53.200;6.448;2022-10-16T14:40:13;15.80;99.90
59041;DHT22;44825;53.200;6.448;2022-10-16T14:42:42;15.70;99.90
59041;DHT22;44825;53.200;6.448;2022-10-16T14:45:10;15.70;99.90
59041;DHT22;44825;53.200;6.448;2022-10-16T14:47:46;15.70;99.90
59041;DHT22;44825;53.200;6.448;2022-10-16T14:56:43;15.50;99.90
59041;DHT22;44825;53.200;6.448;2022-10-16T14:59:27;15.50;99.90
59041;DHT22;44825;53.200;6.448;2022-10-16T15:01:55;15.50;99.90
59041;DHT22;44825;53.200;6.448;2022-10-16T15:04:22;15.50;99.90
59041;DHT22;44825;53.200;6.448;2022-10-16T15:06:49;15.40;99.90
59041;DHT22;44825;53.200;6.448;2022-10-16T15:09:16;15.40;99.90
59041;DHT22;44825;53.200;6.448;2022-10-16T15:11:44;15.40;99.90
59041;DHT22;44825;53.200;6.448;2022-10-16T15:14:12;15.40;99.90
59041;DHT22;44825;53.200;6.448;2022-10-16T15:16:43;15.40;99.90
59041;DHT22;44825;53.200;6.448;2022-10-16T15:19:11;15.40;99.90
59041;DHT22;44825;53.200;6.448;2022-10-16T15:30:07;15.20;99.90
59041;DHT22;44825;53.200;6.448;2022-10-16T15:32:36;15.20;99.90
59041;DHT22;44825;53.200;6.448;2022-10-16T15:35:03;15.20;99.90
59041;DHT22;44825;53.200;6.448;2022-10-16T15:37:30;15.10;99.90
59041;DHT22;44825;53.200;6.448;2022-10-16T15:39:57;15.10;99.90
59041;DHT22;44825;53.200;6.448;2022-10-16T15:42:25;15.10;99.90
59041;DHT22;44825;53.200;6.448;2022-10-16T15:44:52;15.10;99.90
59041;DHT22;44825;53.200;6.448;2022-10-16T15:47:19;15.10;99.90
59041;DHT22;44825;53.200;6.448;2022-10-16T15:49:47;15.10;99.90
59041;DHT22;44825;53.200;6.448;2022-10-16T15:52:15;15.00;99.90
59041;DHT22;44825;53.200;6.448;2022-10-16T15:54:42;15.00;99.90
59041;DHT22;44825;53.200;6.448;2022-10-16T15:57:10;15.00;99.90
59041;DHT22;44825;53.200;6.448;2022-10-16T15:59:37;14.90;99.90
59041;DHT22;44825;53.200;6.448;2022-10-16T16:02:04;14.90;99.90
59041;DHT22;44825;53.200;6.448;2022-10-16T16:04:32;14.80;99.90
59041;DHT22;44825;53.200;6.448;2022-10-16T16:07:00;14.80;99.90
59041;DHT22;44825;53.200;6.448;2022-10-16T16:09:37;14.70;99.90
59041;DHT22;44825;53.200;6.448;2022-10-16T16:12:04;14.70;99.90
59041;DHT22;44825;53.200;6.448;2022-10-16T16:14:31;14.60;99.90
59041;DHT22;44825;53.200;6.448;2022-10-16T16:16:58;14.50;99.90
59041;DHT22;44825;53.200;6.448;2022-10-16T16:19:25;14.50;99.90
59041;DHT22;44825;53.200;6.448;2022-10-16T16:21:52;14.50;99.90
59041;DHT22;44825;53.200;6.448;2022-10-16T16:24:21;14.40;99.90
59041;DHT22;44825;53.200;6.448;2022-10-16T16:26:48;14.40;99.90
59041;DHT22;44825;53.200;6.448;2022-10-16T16:29:15;14.30;99.90
59041;DHT22;44825;53.200;6.448;2022-10-16T16:31:42;14.30;99.90
59041;DHT22;44825;53.200;6.448;2022-10-16T16:34:09;14.20;99.90
59041;DHT22;44825;53.200;6.448;2022-10-16T16:36:37;14.20;99.90
59041;DHT22;44825;53.200;6.448;2022-10-16T16:39:05;14.20;99.90
59041;DHT22;44825;53.200;6.448;2022-10-16T16:41:34;14.20;99.90
59041;DHT22;44825;53.200;6.448;2022-10-16T16:44:01;14.10;99.90
59041;DHT22;44825;53.200;6.448;2022-10-16T16:46:30;14.10;99.90
59041;DHT22;44825;53.200;6.448;2022-10-16T16:48:57;14.10;99.90
59041;DHT22;44825;53.200;6.448;2022-10-16T16:51:25;14.00;99.90
59041;DHT22;44825;53.200;6.448;2022-10-16T16:53:53;14.00;99.90
59041;DHT22;44825;53.200;6.448;2022-10-16T16:56:20;14.00;99.90
59041;DHT22;44825;53.200;6.448;2022-10-16T16:58:50;14.00;99.90
59041;DHT22;44825;53.200;6.448;2022-10-16T17:01:17;14.00;99.90
59041;DHT22;44825;53.200;6.448;2022-10-16T17:03:45;13.90;99.90
59041;DHT22;44825;53.200;6.448;2022-10-16T17:06:13;13.90;99.90
59041;DHT22;44825;53.200;6.448;2022-10-16T17:08:41;13.80;99.90
59041;DHT22;44825;53.200;6.448;2022-10-16T17:11:11;13.70;99.90
59041;DHT22;44825;53.200;6.448;2022-10-16T17:13:39;13.70;99.90
59041;DHT22;44825;53.200;6.448;2022-10-16T17:16:07;13.70;99.90
59041;DHT22;44825;53.200;6.448;2022-10-16T17:18:35;13.70;99.90
59041;DHT22;44825;53.200;6.448;2022-10-16T17:21:03;13.60;99.90
59041;DHT22;44825;53.200;6.448;2022-10-16T17:23:31;13.60;99.90
59041;DHT22;44825;53.200;6.448;2022-10-16T17:26:02;13.60;99.90
59041;DHT22;44825;53.200;6.448;2022-10-16T17:28:29;13.60;99.90
59041;DHT22;44825;53.200;6.448;2022-10-16T17:31:05;13.50;99.90
59041;DHT22;44825;53.200;6.448;2022-10-16T17:33:34;13.50;99.90
59041;DHT22;44825;53.200;6.448;2022-10-16T17:36:01;13.40;99.90
59041;DHT22;44825;53.200;6.448;2022-10-16T17:38:29;13.40;99.90
59041;DHT22;44825;53.200;6.448;2022-10-16T17:40:56;13.40;99.90
59041;DHT22;44825;53.200;6.448;2022-10-16T17:43:24;13.40;99.90
59041;DHT22;44825;53.200;6.448;2022-10-16T17:45:52;13.40;99.90
59041;DHT22;44825;53.200;6.448;2022-10-16T17:48:19;13.30;99.90
59041;DHT22;44825;53.200;6.448;2022-10-16T17:50:47;13.30;99.90
59041;DHT22;44825;53.200;6.448;2022-10-16T17:53:14;13.20;99.90
59041;DHT22;44825;53.200;6.448;2022-10-16T17:55:42;13.20;99.90
59041;DHT22;44825;53.200;6.448;2022-10-16T17:58:09;13.20;99.90
59041;DHT22;44825;53.200;6.448;2022-10-16T18:00:36;13.10;99.90
59041;DHT22;44825;53.200;6.448;2022-10-16T18:03:03;13.10;99.90
59041;DHT22;44825;53.200;6.448;2022-10-16T18:05:31;13.00;99.90
59041;DHT22;44825;53.200;6.448;2022-10-16T18:07:59;13.10;99.90
59041;DHT22;44825;53.200;6.448;2022-10-16T18:10:26;13.00;99.90
59041;DHT22;44825;53.200;6.448;2022-10-16T18:12:54;13.00;99.90
59041;DHT22;44825;53.200;6.448;2022-10-16T18:15:21;12.90;99.90
59041;DHT22;44825;53.200;6.448;2022-10-16T18:17:49;13.00;99.90
59041;DHT22;44825;53.200;6.448;2022-10-16T18:20:16;12.90;99.90
59041;DHT22;44825;53.200;6.448;2022-10-16T18:22:43;12.90;99.90
59041;DHT22;44825;53.200;6.448;2022-10-16T18:25:11;12.90;99.90
59041;DHT22;44825;53.200;6.448;2022-10-16T18:27:39;12.90;99.90
59041;DHT22;44825;53.200;6.448;2022-10-16T18:30:06;12.90;99.90
59041;DHT22;44825;53.200;6.448;2022-10-16T18:32:33;12.90;99.90
59041;DHT22;44825;53.200;6.448;2022-10-16T18:35:00;12.90;99.90
59041;DHT22;44825;53.200;6.448;2022-10-16T18:37:28;12.90;99.90
59041;DHT22;44825;53.200;6.448;2022-10-16T18:39:55;12.90;99.90
59041;DHT22;44825;53.200;6.448;2022-10-16T18:42:23;12.80;99.90
59041;DHT22;44825;53.200;6.448;2022-10-16T18:44:50;12.90;99.90
59041;DHT22;44825;53.200;6.448;2022-10-16T18:47:17;12.80;99.90
59041;DHT22;44825;53.200;6.448;2022-10-16T18:49:47;12.90;99.90
59041;DHT22;44825;53.200;6.448;2022-10-16T18:52:14;12.80;99.90
59041;DHT22;44825;53.200;6.448;2022-10-16T18:54:41;12.90;99.90
59041;DHT22;44825;53.200;6.448;2022-10-16T18:57:08;12.90;99.90
59041;DHT22;44825;53.200;6.448;2022-10-16T18:59:37;12.90;99.90
59041;DHT22;44825;53.200;6.448;2022-10-16T19:02:07;12.80;99.90
59041;DHT22;44825;53.200;6.448;2022-10-16T19:04:34;12.70;99.90
59041;DHT22;44825;53.200;6.448;2022-10-16T19:07:02;12.70;99.90
59041;DHT22;44825;53.200;6.448;2022-10-16T19:09:29;12.70;99.90
59041;DHT22;44825;53.200;6.448;2022-10-16T19:11:57;12.70;99.90
59041;DHT22;44825;53.200;6.448;2022-10-16T19:14:24;12.70;99.90
59041;DHT22;44825;53.200;6.448;2022-10-16T19:16:53;12.70;99.90
59041;DHT22;44825;53.200;6.448;2022-10-16T19:19:20;12.70;99.90
59041;DHT22;44825;53.200;6.448;2022-10-16T19:21:48;12.70;99.90
59041;DHT22;44825;53.200;6.448;2022-10-16T19:24:20;12.80;99.90
59041;DHT22;44825;53.200;6.448;2022-10-16T19:26:48;12.80;99.90
59041;DHT22;44825;53.200;6.448;2022-10-16T19:29:15;12.80;99.90
59041;DHT22;44825;53.200;6.448;2022-10-16T19:31:42;12.80;99.90
59041;DHT22;44825;53.200;6.448;2022-10-16T19:34:10;12.80;99.90
59041;DHT22;44825;53.200;6.448;2022-10-16T19:36:38;12.80;99.90
59041;DHT22;44825;53.200;6.448;2022-10-16T19:39:06;12.80;99.90
59041;DHT22;44825;53.200;6.448;2022-10-16T19:41:35;12.80;99.90
59041;DHT22;44825;53.200;6.448;2022-10-16T19:44:03;12.80;99.90
59041;DHT22;44825;53.200;6.448;2022-10-16T19:46:30;12.80;99.90
59041;DHT22;44825;53.200;6.448;2022-10-16T19:48:58;12.90;99.90
59041;DHT22;44825;53.200;6.448;2022-10-16T19:51:27;12.90;99.90
59041;DHT22;44825;53.200;6.448;2022-10-16T19:53:56;12.90;99.90
59041;DHT22;44825;53.200;6.448;2022-10-16T19:56:25;12.90;99.90
59041;DHT22;44825;53.200;6.448;2022-10-16T19:58:53;12.90;99.90
59041;DHT22;44825;53.200;6.448;2022-10-16T20:01:21;13.00;99.90
59041;DHT22;44825;53.200;6.448;2022-10-16T20:03:49;13.00;99.90
59041;DHT22;44825;53.200;6.448;2022-10-16T20:06:17;13.00;99.90
59041;DHT22;44825;53.200;6.448;2022-10-16T20:08:46;12.90;99.90
59041;DHT22;44825;53.200;6.448;2022-10-16T20:11:14;13.00;99.90
59041;DHT22;44825;53.200;6.448;2022-10-16T20:13:43;12.90;99.90
59041;DHT22;44825;53.200;6.448;2022-10-16T20:16:11;12.90;99.90
59041;DHT22;44825;53.200;6.448;2022-10-16T20:18:38;12.80;99.90
59041;DHT22;44825;53.200;6.448;2022-10-16T20:21:07;12.80;99.90
59041;DHT22;44825;53.200;6.448;2022-10-16T20:23:38;12.80;99.90
59041;DHT22;44825;53.200;6.448;2022-10-16T20:26:07;12.80;99.90
59041;DHT22;44825;53.200;6.448;2022-10-16T20:28:37;12.80;99.90
59041;DHT22;44825;53.200;6.448;2022-10-16T20:31:05;12.80;99.90
59041;DHT22;44825;53.200;6.448;2022-10-16T20:33:33;12.80;99.90
59041;DHT22;44825;53.200;6.448;2022-10-16T20:36:00;12.80;99.90
59041;DHT22;44825;53.200;6.448;2022-10-16T20:38:27;12.90;99.90
59041;DHT22;44825;53.200;6.448;2022-10-16T20:40:54;12.90;99.90
59041;DHT22;44825;53.200;6.448;2022-10-16T20:43:23;12.90;99.90
59041;DHT22;44825;53.200;6.448;2022-10-16T20:45:57;12.90;99.90
59041;DHT22;44825;53.200;6.448;2022-10-16T20:48:24;12.90;99.90
59041;DHT22;44825;53.200;6.448;2022-10-16T20:50:52;12.90;99.90
59041;DHT22;44825;53.200;6.448;2022-10-16T20:53:19;12.90;99.90
59041;DHT22;44825;53.200;6.448;2022-10-16T20:55:46;12.90;99.90
59041;DHT22;44825;53.200;6.448;2022-10-16T20:58:14;12.90;99.90
59041;DHT22;44825;53.200;6.448;2022-10-16T21:00:43;12.90;99.90
59041;DHT22;44825;53.200;6.448;2022-10-16T21:03:10;13.00;99.90
59041;DHT22;44825;53.200;6.448;2022-10-16T21:05:41;13.00;99.90
59041;DHT22;44825;53.200;6.448;2022-10-16T21:08:08;13.00;99.90